sensor_id;sensor_type;location;lat;lon;timestamp;temperature;humidity
26641;DHT22;14269;47.358;0.724;2023-06-10T00:00:56;21.0;81.0
26641;DHT22;14269;47.358;0.724;2023-06-10T00:03:28;21.0;81.0
26641;DHT22;14269;47.358;0.724;2023-06-10T00:05:59;21.0;80.0
26641;DHT22;14269;47.358;0.724;2023-06-10T00:08:31;21.0;80.0
26641;DHT22;14269;47.358;0.724;2023-06-10T00:11:12;21.0;80.0
26641;DHT22;14269;47.358;0.724;2023-06-10T00:13:44;21.0;80.0
26641;DHT22;14269;47.358;0.724;2023-06-10T00:16:17;21.0;80.0
26641;DHT22;14269;47.358;0.724;2023-06-10T00:19:01;21.0;79.0
26641;DHT22;14269;47.358;0.724;2023-06-10T00:21:40;21.0;80.0
26641;DHT22;14269;47.358;0.724;2023-06-10T00:24:12;21.0;80.0
26641;DHT22;14269;47.358;0.724;2023-06-10T00:26:42;21.0;79.0
26641;DHT22;14269;47.358;0.724;2023-06-10T00:29:15;21.0;80.0
26641;DHT22;14269;47.358;0.724;2023-06-10T00:31:46;21.0;80.0
26641;DHT22;14269;47.358;0.724;2023-06-10T00:34:17;20.0;81.0
26641;DHT22;14269;47.358;0.724;2023-06-10T00:36:49;20.0;83.0
26641;DHT22;14269;47.358;0.724;2023-06-10T00:39:21;20.0;84.0
26641;DHT22;14269;47.358;0.724;2023-06-10T00:41:52;20.0;85.0
26641;DHT22;14269;47.358;0.724;2023-06-10T00:44:24;20.0;84.0
26641;DHT22;14269;47.358;0.724;2023-06-10T00:46:56;20.0;85.0
26641;DHT22;14269;47.358;0.724;2023-06-10T00:49:27;20.0;85.0
26641;DHT22;14269;47.358;0.724;2023-06-10T00:51:59;20.0;85.0
26641;DHT22;14269;47.358;0.724;2023-06-10T00:54:31;20.0;85.0
26641;DHT22;14269;47.358;0.724;2023-06-10T00:57:03;20.0;84.0
26641;DHT22;14269;47.358;0.724;2023-06-10T00:59:47;20.0;83.0
26641;DHT22;14269;47.358;0.724;2023-06-10T01:02:26;20.0;83.0
26641;DHT22;14269;47.358;0.724;2023-06-10T01:04:58;20.0;82.0
26641;DHT22;14269;47.358;0.724;2023-06-10T01:07:34;20.0;83.0
26641;DHT22;14269;47.358;0.724;2023-06-10T01:10:16;20.0;84.0
26641;DHT22;14269;47.358;0.724;2023-06-10T01:12:58;20.0;83.0
26641;DHT22;14269;47.358;0.724;2023-06-10T01:15:35;20.0;83.0
26641;DHT22;14269;47.358;0.724;2023-06-10T01:18:09;21.0;82.0
26641;DHT22;14269;47.358;0.724;2023-06-10T01:20:48;21.0;81.0
26641;DHT22;14269;47.358;0.724;2023-06-10T01:23:19;21.0;81.0
26641;DHT22;14269;47.358;0.724;2023-06-10T01:25:55;21.0;81.0
26641;DHT22;14269;47.358;0.724;2023-06-10T01:28:36;21.0;80.0
26641;DHT22;14269;47.358;0.724;2023-06-10T01:31:17;21.0;80.0
26641;DHT22;14269;47.358;0.724;2023-06-10T01:33:56;21.0;80.0
26641;DHT22;14269;47.358;0.724;2023-06-10T01:36:28;21.0;80.0
26641;DHT22;14269;47.358;0.724;2023-06-10T01:39:00;21.0;80.0
26641;DHT22;14269;47.358;0.724;2023-06-10T01:41:42;21.0;79.0
26641;DHT22;14269;47.358;0.724;2023-06-10T01:44:17;21.0;79.0
26641;DHT22;14269;47.358;0.724;2023-06-10T01:46:55;21.0;79.0
26641;DHT22;14269;47.358;0.724;2023-06-10T01:49:28;21.0;79.0
26641;DHT22;14269;47.358;0.724;2023-06-10T01:52:08;20.0;79.0
26641;DHT22;14269;47.358;0.724;2023-06-10T01:54:40;20.0;80.0
26641;DHT22;14269;47.358;0.724;2023-06-10T01:57:11;20.0;80.0
26641;DHT22;14269;47.358;0.724;2023-06-10T01:59:44;20.0;81.0
26641;DHT22;14269;47.358;0.724;2023-06-10T02:02:25;20.0;81.0
26641;DHT22;14269;47.358;0.724;2023-06-10T02:04:57;20.0;82.0
26641;DHT22;14269;47.358;0.724;2023-06-10T02:07:28;20.0;81.0
26641;DHT22;14269;47.358;0.724;2023-06-10T02:10:00;20.0;81.0
26641;DHT22;14269;47.358;0.724;2023-06-10T02:12:31;20.0;80.0
26641;DHT22;14269;47.358;0.724;2023-06-10T02:15:03;20.0;79.0
26641;DHT22;14269;47.358;0.724;2023-06-10T02:17:35;21.0;79.0
26641;DHT22;14269;47.358;0.724;2023-06-10T02:20:08;20.0;80.0
26641;DHT22;14269;47.358;0.724;2023-06-10T02:22:48;20.0;81.0
26641;DHT22;14269;47.358;0.724;2023-06-10T02:25:20;20.0;80.0
26641;DHT22;14269;47.358;0.724;2023-06-10T02:27:51;20.0;80.0
26641;DHT22;14269;47.358;0.724;2023-06-10T02:30:23;20.0;81.0
26641;DHT22;14269;47.358;0.724;2023-06-10T02:32:56;20.0;81.0
26641;DHT22;14269;47.358;0.724;2023-06-10T02:35:37;20.0;82.0
26641;DHT22;14269;47.358;0.724;2023-06-10T02:38:08;20.0;83.0
26641;DHT22;14269;47.358;0.724;2023-06-10T02:40:40;20.0;82.0
26641;DHT22;14269;47.358;0.724;2023-06-10T02:43:11;20.0;82.0
26641;DHT22;14269;47.358;0.724;2023-06-10T02:45:43;20.0;81.0
26641;DHT22;14269;47.358;0.724;2023-06-10T02:48:15;20.0;81.0
26641;DHT22;14269;47.358;0.724;2023-06-10T02:50:46;20.0;81.0
26641;DHT22;14269;47.358;0.724;2023-06-10T02:53:18;20.0;80.0
26641;DHT22;14269;47.358;0.724;2023-06-10T02:55:50;20.0;80.0
26641;DHT22;14269;47.358;0.724;2023-06-10T02:58:22;20.0;80.0
26641;DHT22;14269;47.358;0.724;2023-06-10T03:00:53;20.0;80.0
26641;DHT22;14269;47.358;0.724;2023-06-10T03:03:25;20.0;80.0
26641;DHT22;14269;47.358;0.724;2023-06-10T03:06:06;20.0;80.0
26641;DHT22;14269;47.358;0.724;2023-06-10T03:08:48;20.0;80.0
26641;DHT22;14269;47.358;0.724;2023-06-10T03:11:20;20.0;80.0
26641;DHT22;14269;47.358;0.724;2023-06-10T03:13:52;20.0;80.0
26641;DHT22;14269;47.358;0.724;2023-06-10T03:16:33;20.0;80.0
26641;DHT22;14269;47.358;0.724;2023-06-10T03:19:05;20.0;80.0
26641;DHT22;14269;47.358;0.724;2023-06-10T03:21:37;20.0;81.0
26641;DHT22;14269;47.358;0.724;2023-06-10T03:24:18;20.0;81.0
26641;DHT22;14269;47.358;0.724;2023-06-10T03:26:50;20.0;81.0
26641;DHT22;14269;47.358;0.724;2023-06-10T03:29:21;20.0;81.0
26641;DHT22;14269;47.358;0.724;2023-06-10T03:31:53;20.0;80.0
26641;DHT22;14269;47.358;0.724;2023-06-10T03:34:25;20.0;80.0
26641;DHT22;14269;47.358;0.724;2023-06-10T03:36:57;20.0;80.0
26641;DHT22;14269;47.358;0.724;2023-06-10T03:39:29;20.0;80.0
26641;DHT22;14269;47.358;0.724;2023-06-10T03:42:00;20.0;80.0
26641;DHT22;14269;47.358;0.724;2023-06-10T03:44:31;20.0;80.0
26641;DHT22;14269;47.358;0.724;2023-06-10T03:47:03;20.0;80.0
26641;DHT22;14269;47.358;0.724;2023-06-10T03:49:45;20.0;80.0
26641;DHT22;14269;47.358;0.724;2023-06-10T03:52:17;20.0;80.0
26641;DHT22;14269;47.358;0.724;2023-06-10T03:54:48;20.0;80.0
26641;DHT22;14269;47.358;0.724;2023-06-10T03:57:20;20.0;81.0
26641;DHT22;14269;47.358;0.724;2023-06-10T03:59:51;20.0;81.0
26641;DHT22;14269;47.358;0.724;2023-06-10T04:02:23;20.0;82.0
26641;DHT22;14269;47.358;0.724;2023-06-10T04:04:55;20.0;82.0
26641;DHT22;14269;47.358;0.724;2023-06-10T04:07:26;20.0;82.0
26641;DHT22;14269;47.358;0.724;2023-06-10T04:10:09;20.0;82.0
26641;DHT22;14269;47.358;0.724;2023-06-10T04:12:50;20.0;82.0
26641;DHT22;14269;47.358;0.724;2023-06-10T04:15:21;20.0;81.0
26641;DHT22;14269;47.358;0.724;2023-06-10T04:17:53;20.0;81.0
26641;DHT22;14269;47.358;0.724;2023-06-10T04:20:25;20.0;80.0
26641;DHT22;14269;47.358;0.724;2023-06-10T04:22:57;20.0;80.0
26641;DHT22;14269;47.358;0.724;2023-06-10T04:25:28;20.0;80.0
26641;DHT22;14269;47.358;0.724;2023-06-10T04:28:00;20.0;80.0
26641;DHT22;14269;47.358;0.724;2023-06-10T04:30:31;20.0;80.0
26641;DHT22;14269;47.358;0.724;2023-06-10T04:33:03;20.0;80.0
26641;DHT22;14269;47.358;0.724;2023-06-10T04:35:35;20.0;80.0
26641;DHT22;14269;47.358;0.724;2023-06-10T04:38:06;21.0;81.0
26641;DHT22;14269;47.358;0.724;2023-06-10T04:40:38;21.0;79.0
26641;DHT22;14269;47.358;0.724;2023-06-10T04:43:10;21.0;78.0
26641;DHT22;14269;47.358;0.724;2023-06-10T04:45:44;21.0;79.0
26641;DHT22;14269;47.358;0.724;2023-06-10T04:48:24;21.0;77.0
26641;DHT22;14269;47.358;0.724;2023-06-10T04:50:56;21.0;78.0
26641;DHT22;14269;47.358;0.724;2023-06-10T04:53:36;21.0;77.0
26641;DHT22;14269;47.358;0.724;2023-06-10T04:56:08;21.0;77.0
26641;DHT22;14269;47.358;0.724;2023-06-10T04:58:40;22.0;76.0
26641;DHT22;14269;47.358;0.724;2023-06-10T05:01:11;21.0;76.0
26641;DHT22;14269;47.358;0.724;2023-06-10T05:03:43;21.0;77.0
26641;DHT22;14269;47.358;0.724;2023-06-10T05:06:15;21.0;76.0
26641;DHT22;14269;47.358;0.724;2023-06-10T05:08:46;21.0;76.0
26641;DHT22;14269;47.358;0.724;2023-06-10T05:11:18;21.0;77.0
26641;DHT22;14269;47.358;0.724;2023-06-10T05:13:50;21.0;77.0
26641;DHT22;14269;47.358;0.724;2023-06-10T05:16:21;21.0;76.0
26641;DHT22;14269;47.358;0.724;2023-06-10T05:18:53;21.0;77.0
26641;DHT22;14269;47.358;0.724;2023-06-10T05:21:24;21.0;77.0
26641;DHT22;14269;47.358;0.724;2023-06-10T05:23:56;21.0;77.0
26641;DHT22;14269;47.358;0.724;2023-06-10T05:26:29;21.0;77.0
26641;DHT22;14269;47.358;0.724;2023-06-10T05:29:09;21.0;78.0
26641;DHT22;14269;47.358;0.724;2023-06-10T05:31:41;21.0;78.0
26641;DHT22;14269;47.358;0.724;2023-06-10T05:34:13;21.0;76.0
26641;DHT22;14269;47.358;0.724;2023-06-10T05:36:44;21.0;77.0
26641;DHT22;14269;47.358;0.724;2023-06-10T05:39:16;21.0;77.0
26641;DHT22;14269;47.358;0.724;2023-06-10T05:41:48;21.0;78.0
26641;DHT22;14269;47.358;0.724;2023-06-10T05:44:19;21.0;78.0
26641;DHT22;14269;47.358;0.724;2023-06-10T05:46:51;21.0;79.0
26641;DHT22;14269;47.358;0.724;2023-06-10T05:49:23;21.0;79.0
26641;DHT22;14269;47.358;0.724;2023-06-10T05:51:56;21.0;79.0
26641;DHT22;14269;47.358;0.724;2023-06-10T05:54:36;21.0;79.0
26641;DHT22;14269;47.358;0.724;2023-06-10T05:57:08;21.0;79.0
26641;DHT22;14269;47.358;0.724;2023-06-10T05:59:39;21.0;79.0
26641;DHT22;14269;47.358;0.724;2023-06-10T06:02:11;21.0;79.0
26641;DHT22;14269;47.358;0.724;2023-06-10T06:04:43;21.0;79.0
26641;DHT22;14269;47.358;0.724;2023-06-10T06:07:14;21.0;79.0
26641;DHT22;14269;47.358;0.724;2023-06-10T06:09:46;21.0;79.0
26641;DHT22;14269;47.358;0.724;2023-06-10T06:12:18;21.0;79.0
26641;DHT22;14269;47.358;0.724;2023-06-10T06:14:49;21.0;79.0
26641;DHT22;14269;47.358;0.724;2023-06-10T06:17:21;21.0;78.0
26641;DHT22;14269;47.358;0.724;2023-06-10T06:19:53;21.0;78.0
26641;DHT22;14269;47.358;0.724;2023-06-10T06:22:24;21.0;78.0
26641;DHT22;14269;47.358;0.724;2023-06-10T06:24:56;21.0;78.0
26641;DHT22;14269;47.358;0.724;2023-06-10T06:27:27;21.0;78.0
26641;DHT22;14269;47.358;0.724;2023-06-10T06:30:00;21.0;78.0
26641;DHT22;14269;47.358;0.724;2023-06-10T06:32:31;21.0;78.0
26641;DHT22;14269;47.358;0.724;2023-06-10T06:35:03;21.0;78.0
26641;DHT22;14269;47.358;0.724;2023-06-10T06:37:44;21.0;78.0
26641;DHT22;14269;47.358;0.724;2023-06-10T06:40:16;21.0;78.0
26641;DHT22;14269;47.358;0.724;2023-06-10T06:42:48;21.0;78.0
26641;DHT22;14269;47.358;0.724;2023-06-10T06:45:19;21.0;78.0
26641;DHT22;14269;47.358;0.724;2023-06-10T06:47:51;21.0;77.0
26641;DHT22;14269;47.358;0.724;2023-06-10T06:50:22;21.0;78.0
26641;DHT22;14269;47.358;0.724;2023-06-10T06:52:54;21.0;78.0
26641;DHT22;14269;47.358;0.724;2023-06-10T06:55:26;21.0;78.0
26641;DHT22;14269;47.358;0.724;2023-06-10T06:57:58;21.0;78.0
26641;DHT22;14269;47.358;0.724;2023-06-10T07:00:39;21.0;78.0
26641;DHT22;14269;47.358;0.724;2023-06-10T07:03:11;21.0;77.0
26641;DHT22;14269;47.358;0.724;2023-06-10T07:05:43;21.0;77.0
26641;DHT22;14269;47.358;0.724;2023-06-10T07:08:14;21.0;77.0
26641;DHT22;14269;47.358;0.724;2023-06-10T07:10:46;21.0;77.0
26641;DHT22;14269;47.358;0.724;2023-06-10T07:13:17;21.0;77.0
26641;DHT22;14269;47.358;0.724;2023-06-10T07:15:49;22.0;77.0
26641;DHT22;14269;47.358;0.724;2023-06-10T07:18:21;22.0;77.0
26641;DHT22;14269;47.358;0.724;2023-06-10T07:20:52;22.0;76.0
26641;DHT22;14269;47.358;0.724;2023-06-10T07:23:24;22.0;76.0
26641;DHT22;14269;47.358;0.724;2023-06-10T07:25:55;22.0;76.0
26641;DHT22;14269;47.358;0.724;2023-06-10T07:28:27;22.0;76.0
26641;DHT22;14269;47.358;0.724;2023-06-10T07:30:59;22.0;76.0
26641;DHT22;14269;47.358;0.724;2023-06-10T07:33:30;22.0;76.0
26641;DHT22;14269;47.358;0.724;2023-06-10T07:36:02;22.0;75.0
26641;DHT22;14269;47.358;0.724;2023-06-10T07:38:34;22.0;75.0
26641;DHT22;14269;47.358;0.724;2023-06-10T07:41:05;23.0;75.0
26641;DHT22;14269;47.358;0.724;2023-06-10T07:43:37;23.0;75.0
26641;DHT22;14269;47.358;0.724;2023-06-10T07:46:09;23.0;74.0
26641;DHT22;14269;47.358;0.724;2023-06-10T07:48:40;23.0;73.0
26641;DHT22;14269;47.358;0.724;2023-06-10T07:51:12;23.0;72.0
26641;DHT22;14269;47.358;0.724;2023-06-10T07:53:44;24.0;72.0
26641;DHT22;14269;47.358;0.724;2023-06-10T07:56:15;23.0;72.0
26641;DHT22;14269;47.358;0.724;2023-06-10T07:58:47;23.0;71.0
26641;DHT22;14269;47.358;0.724;2023-06-10T08:01:19;23.0;72.0
26641;DHT22;14269;47.358;0.724;2023-06-10T08:03:50;23.0;72.0
26641;DHT22;14269;47.358;0.724;2023-06-10T08:06:22;23.0;72.0
26641;DHT22;14269;47.358;0.724;2023-06-10T08:08:53;23.0;73.0
26641;DHT22;14269;47.358;0.724;2023-06-10T08:11:28;23.0;72.0
26641;DHT22;14269;47.358;0.724;2023-06-10T08:14:07;23.0;71.0
26641;DHT22;14269;47.358;0.724;2023-06-10T08:16:39;23.0;72.0
26641;DHT22;14269;47.358;0.724;2023-06-10T08:19:10;23.0;71.0
26641;DHT22;14269;47.358;0.724;2023-06-10T08:21:42;23.0;72.0
26641;DHT22;14269;47.358;0.724;2023-06-10T08:24:16;23.0;72.0
26641;DHT22;14269;47.358;0.724;2023-06-10T08:26:57;23.0;73.0
26641;DHT22;14269;47.358;0.724;2023-06-10T08:29:37;23.0;73.0
26641;DHT22;14269;47.358;0.724;2023-06-10T08:32:09;23.0;71.0
26641;DHT22;14269;47.358;0.724;2023-06-10T08:34:40;23.0;72.0
26641;DHT22;14269;47.358;0.724;2023-06-10T08:37:12;23.0;72.0
26641;DHT22;14269;47.358;0.724;2023-06-10T08:39:44;23.0;72.0
26641;DHT22;14269;47.358;0.724;2023-06-10T08:42:22;23.0;72.0
26641;DHT22;14269;47.358;0.724;2023-06-10T08:44:58;23.0;72.0
26641;DHT22;14269;47.358;0.724;2023-06-10T08:47:42;23.0;72.0
26641;DHT22;14269;47.358;0.724;2023-06-10T08:50:21;23.0;71.0
26641;DHT22;14269;47.358;0.724;2023-06-10T08:52:56;23.0;71.0
26641;DHT22;14269;47.358;0.724;2023-06-10T08:55:36;23.0;70.0
26641;DHT22;14269;47.358;0.724;2023-06-10T08:58:16;24.0;70.0
26641;DHT22;14269;47.358;0.724;2023-06-10T09:00:47;24.0;70.0
26641;DHT22;14269;47.358;0.724;2023-06-10T09:03:20;25.0;66.0
26641;DHT22;14269;47.358;0.724;2023-06-10T09:06:03;25.0;64.0
26641;DHT22;14269;47.358;0.724;2023-06-10T09:08:43;25.0;65.0
26641;DHT22;14269;47.358;0.724;2023-06-10T09:11:14;25.0;65.0
26641;DHT22;14269;47.358;0.724;2023-06-10T09:13:46;26.0;66.0
26641;DHT22;14269;47.358;0.724;2023-06-10T09:16:17;25.0;65.0
26641;DHT22;14269;47.358;0.724;2023-06-10T09:18:54;25.0;64.0
26641;DHT22;14269;47.358;0.724;2023-06-10T09:21:31;25.0;65.0
26641;DHT22;14269;47.358;0.724;2023-06-10T09:24:04;25.0;65.0
26641;DHT22;14269;47.358;0.724;2023-06-10T09:26:45;25.0;64.0
26641;DHT22;14269;47.358;0.724;2023-06-10T09:29:26;25.0;64.0
26641;DHT22;14269;47.358;0.724;2023-06-10T09:31:58;25.0;65.0
26641;DHT22;14269;47.358;0.724;2023-06-10T09:34:29;25.0;64.0
26641;DHT22;14269;47.358;0.724;2023-06-10T09:37:01;24.0;63.0
26641;DHT22;14269;47.358;0.724;2023-06-10T09:39:33;25.0;62.0
26641;DHT22;14269;47.358;0.724;2023-06-10T09:42:15;26.0;61.0
26641;DHT22;14269;47.358;0.724;2023-06-10T09:44:50;27.0;60.0
26641;DHT22;14269;47.358;0.724;2023-06-10T09:47:28;26.0;59.0
26641;DHT22;14269;47.358;0.724;2023-06-10T09:50:00;26.0;60.0
26641;DHT22;14269;47.358;0.724;2023-06-10T09:52:41;25.0;63.0
26641;DHT22;14269;47.358;0.724;2023-06-10T09:55:13;25.0;63.0
26641;DHT22;14269;47.358;0.724;2023-06-10T09:57:49;25.0;63.0
26641;DHT22;14269;47.358;0.724;2023-06-10T10:00:26;25.0;62.0
26641;DHT22;14269;47.358;0.724;2023-06-10T10:02:58;24.0;63.0
26641;DHT22;14269;47.358;0.724;2023-06-10T10:05:29;24.0;64.0
26641;DHT22;14269;47.358;0.724;2023-06-10T10:08:01;24.0;66.0
26641;DHT22;14269;47.358;0.724;2023-06-10T10:10:33;24.0;68.0
26641;DHT22;14269;47.358;0.724;2023-06-10T10:13:05;23.0;69.0
26641;DHT22;14269;47.358;0.724;2023-06-10T10:15:39;23.0;71.0
26641;DHT22;14269;47.358;0.724;2023-06-10T10:18:20;23.0;70.0
26641;DHT22;14269;47.358;0.724;2023-06-10T10:21:01;23.0;72.0
26641;DHT22;14269;47.358;0.724;2023-06-10T10:23:47;23.0;73.0
26641;DHT22;14269;47.358;0.724;2023-06-10T10:26:26;23.0;73.0
26641;DHT22;14269;47.358;0.724;2023-06-10T10:29:10;23.0;74.0
26641;DHT22;14269;47.358;0.724;2023-06-10T10:31:50;22.0;75.0
26641;DHT22;14269;47.358;0.724;2023-06-10T10:34:37;22.0;76.0
26641;DHT22;14269;47.358;0.724;2023-06-10T10:37:20;23.0;75.0
26641;DHT22;14269;47.358;0.724;2023-06-10T10:39:52;23.0;78.0
26641;DHT22;14269;47.358;0.724;2023-06-10T10:42:24;23.0;77.0
26641;DHT22;14269;47.358;0.724;2023-06-10T10:45:07;23.0;76.0
26641;DHT22;14269;47.358;0.724;2023-06-10T10:47:52;23.0;76.0
26641;DHT22;14269;47.358;0.724;2023-06-10T10:50:30;23.0;75.0
26641;DHT22;14269;47.358;0.724;2023-06-10T10:53:11;23.0;73.0
26641;DHT22;14269;47.358;0.724;2023-06-10T10:55:42;23.0;74.0
26641;DHT22;14269;47.358;0.724;2023-06-10T10:58:35;22.0;74.0
26641;DHT22;14269;47.358;0.724;2023-06-10T11:01:14;23.0;75.0
26641;DHT22;14269;47.358;0.724;2023-06-10T11:03:48;23.0;74.0
26641;DHT22;14269;47.358;0.724;2023-06-10T11:06:29;23.0;73.0
26641;DHT22;14269;47.358;0.724;2023-06-10T11:09:25;22.0;75.0
26641;DHT22;14269;47.358;0.724;2023-06-10T11:12:05;22.0;75.0
26641;DHT22;14269;47.358;0.724;2023-06-10T11:14:54;23.0;77.0
26641;DHT22;14269;47.358;0.724;2023-06-10T11:17:26;23.0;76.0
26641;DHT22;14269;47.358;0.724;2023-06-10T11:19:58;23.0;76.0
26641;DHT22;14269;47.358;0.724;2023-06-10T11:22:30;23.0;74.0
26641;DHT22;14269;47.358;0.724;2023-06-10T11:25:01;23.0;73.0
26641;DHT22;14269;47.358;0.724;2023-06-10T11:27:38;23.0;73.0
26641;DHT22;14269;47.358;0.724;2023-06-10T11:30:19;23.0;73.0
26641;DHT22;14269;47.358;0.724;2023-06-10T11:32:58;23.0;74.0
26641;DHT22;14269;47.358;0.724;2023-06-10T11:35:38;24.0;74.0
26641;DHT22;14269;47.358;0.724;2023-06-10T11:38:10;24.0;74.0
26641;DHT22;14269;47.358;0.724;2023-06-10T11:40:46;24.0;73.0
26641;DHT22;14269;47.358;0.724;2023-06-10T11:43:25;24.0;73.0
26641;DHT22;14269;47.358;0.724;2023-06-10T11:46:08;23.0;73.0
26641;DHT22;14269;47.358;0.724;2023-06-10T11:48:51;24.0;73.0
26641;DHT22;14269;47.358;0.724;2023-06-10T11:51:32;24.0;72.0
26641;DHT22;14269;47.358;0.724;2023-06-10T11:54:11;24.0;71.0
26641;DHT22;14269;47.358;0.724;2023-06-10T11:56:42;24.0;71.0
26641;DHT22;14269;47.358;0.724;2023-06-10T11:59:14;24.0;71.0
26641;DHT22;14269;47.358;0.724;2023-06-10T12:01:45;24.0;70.0
26641;DHT22;14269;47.358;0.724;2023-06-10T12:04:18;24.0;70.0
26641;DHT22;14269;47.358;0.724;2023-06-10T12:06:59;24.0;69.0
26641;DHT22;14269;47.358;0.724;2023-06-10T12:09:32;24.0;69.0
26641;DHT22;14269;47.358;0.724;2023-06-10T12:12:12;24.0;69.0
26641;DHT22;14269;47.358;0.724;2023-06-10T12:14:53;24.0;68.0
26641;DHT22;14269;47.358;0.724;2023-06-10T12:17:37;24.0;70.0
26641;DHT22;14269;47.358;0.724;2023-06-10T12:20:25;24.0;69.0
26641;DHT22;14269;47.358;0.724;2023-06-10T12:23:00;24.0;68.0
26641;DHT22;14269;47.358;0.724;2023-06-10T12:25:31;24.0;70.0
26641;DHT22;14269;47.358;0.724;2023-06-10T12:28:02;24.0;69.0
26641;DHT22;14269;47.358;0.724;2023-06-10T12:30:34;24.0;68.0
26641;DHT22;14269;47.358;0.724;2023-06-10T12:33:15;24.0;67.0
26641;DHT22;14269;47.358;0.724;2023-06-10T12:35:48;25.0;67.0
26641;DHT22;14269;47.358;0.724;2023-06-10T12:38:29;24.0;69.0
26641;DHT22;14269;47.358;0.724;2023-06-10T12:41:01;24.0;69.0
26641;DHT22;14269;47.358;0.724;2023-06-10T12:43:33;24.0;67.0
26641;DHT22;14269;47.358;0.724;2023-06-10T12:46:14;24.0;67.0
26641;DHT22;14269;47.358;0.724;2023-06-10T12:48:51;25.0;68.0
26641;DHT22;14269;47.358;0.724;2023-06-10T12:51:28;25.0;68.0
26641;DHT22;14269;47.358;0.724;2023-06-10T12:53:59;25.0;67.0
26641;DHT22;14269;47.358;0.724;2023-06-10T12:56:31;25.0;67.0
26641;DHT22;14269;47.358;0.724;2023-06-10T12:59:02;25.0;67.0
26641;DHT22;14269;47.358;0.724;2023-06-10T13:01:34;25.0;66.0
26641;DHT22;14269;47.358;0.724;2023-06-10T13:04:06;24.0;67.0
26641;DHT22;14269;47.358;0.724;2023-06-10T13:06:39;25.0;66.0
26641;DHT22;14269;47.358;0.724;2023-06-10T13:09:19;24.0;66.0
26641;DHT22;14269;47.358;0.724;2023-06-10T13:11:52;24.0;68.0
26641;DHT22;14269;47.358;0.724;2023-06-10T13:14:33;24.0;65.0
26641;DHT22;14269;47.358;0.724;2023-06-10T13:17:05;24.0;63.0
26641;DHT22;14269;47.358;0.724;2023-06-10T13:19:46;24.0;66.0
26641;DHT22;14269;47.358;0.724;2023-06-10T13:22:20;24.0;65.0
26641;DHT22;14269;47.358;0.724;2023-06-10T13:24:59;25.0;63.0
26641;DHT22;14269;47.358;0.724;2023-06-10T13:27:31;24.0;65.0
26641;DHT22;14269;47.358;0.724;2023-06-10T13:30:04;25.0;64.0
26641;DHT22;14269;47.358;0.724;2023-06-10T13:32:44;24.0;66.0
26641;DHT22;14269;47.358;0.724;2023-06-10T13:35:16;25.0;64.0
26641;DHT22;14269;47.358;0.724;2023-06-10T13:37:48;25.0;63.0
26641;DHT22;14269;47.358;0.724;2023-06-10T13:40:19;25.0;62.0
26641;DHT22;14269;47.358;0.724;2023-06-10T13:42:52;25.0;63.0
26641;DHT22;14269;47.358;0.724;2023-06-10T13:45:33;25.0;63.0
26641;DHT22;14269;47.358;0.724;2023-06-10T13:48:05;25.0;63.0
26641;DHT22;14269;47.358;0.724;2023-06-10T13:50:37;25.0;64.0
26641;DHT22;14269;47.358;0.724;2023-06-10T13:53:08;25.0;63.0
26641;DHT22;14269;47.358;0.724;2023-06-10T13:55:39;25.0;63.0
26641;DHT22;14269;47.358;0.724;2023-06-10T13:58:11;25.0;63.0
26641;DHT22;14269;47.358;0.724;2023-06-10T14:00:43;26.0;62.0
26641;DHT22;14269;47.358;0.724;2023-06-10T14:03:14;25.0;60.0
26641;DHT22;14269;47.358;0.724;2023-06-10T14:05:46;26.0;61.0
26641;DHT22;14269;47.358;0.724;2023-06-10T14:08:18;26.0;62.0
26641;DHT22;14269;47.358;0.724;2023-06-10T14:10:50;25.0;63.0
26641;DHT22;14269;47.358;0.724;2023-06-10T14:13:31;25.0;63.0
26641;DHT22;14269;47.358;0.724;2023-06-10T14:16:03;25.0;63.0
26641;DHT22;14269;47.358;0.724;2023-06-10T14:18:34;25.0;63.0
26641;DHT22;14269;47.358;0.724;2023-06-10T14:21:06;25.0;63.0
26641;DHT22;14269;47.358;0.724;2023-06-10T14:23:38;25.0;63.0
26641;DHT22;14269;47.358;0.724;2023-06-10T14:26:09;25.0;64.0
26641;DHT22;14269;47.358;0.724;2023-06-10T14:28:41;25.0;63.0
26641;DHT22;14269;47.358;0.724;2023-06-10T14:31:12;25.0;62.0
26641;DHT22;14269;47.358;0.724;2023-06-10T14:33:44;25.0;63.0
26641;DHT22;14269;47.358;0.724;2023-06-10T14:36:16;25.0;62.0
26641;DHT22;14269;47.358;0.724;2023-06-10T14:38:47;25.0;63.0
26641;DHT22;14269;47.358;0.724;2023-06-10T14:41:19;25.0;61.0
26641;DHT22;14269;47.358;0.724;2023-06-10T14:43:51;25.0;62.0
26641;DHT22;14269;47.358;0.724;2023-06-10T14:46:22;25.0;62.0
26641;DHT22;14269;47.358;0.724;2023-06-10T14:48:54;25.0;61.0
26641;DHT22;14269;47.358;0.724;2023-06-10T14:51:26;25.0;62.0
26641;DHT22;14269;47.358;0.724;2023-06-10T14:53:58;25.0;62.0
26641;DHT22;14269;47.358;0.724;2023-06-10T14:56:29;25.0;62.0
26641;DHT22;14269;47.358;0.724;2023-06-10T14:59:01;26.0;61.0
26641;DHT22;14269;47.358;0.724;2023-06-10T15:01:32;26.0;61.0
26641;DHT22;14269;47.358;0.724;2023-06-10T15:04:04;26.0;61.0
26641;DHT22;14269;47.358;0.724;2023-06-10T15:06:36;26.0;62.0
26641;DHT22;14269;47.358;0.724;2023-06-10T15:09:07;26.0;62.0
26641;DHT22;14269;47.358;0.724;2023-06-10T15:11:39;26.0;62.0
26641;DHT22;14269;47.358;0.724;2023-06-10T15:14:11;26.0;61.0
26641;DHT22;14269;47.358;0.724;2023-06-10T15:16:42;26.0;61.0
26641;DHT22;14269;47.358;0.724;2023-06-10T15:19:14;26.0;61.0
26641;DHT22;14269;47.358;0.724;2023-06-10T15:21:45;26.0;62.0
26641;DHT22;14269;47.358;0.724;2023-06-10T15:24:17;26.0;61.0
26641;DHT22;14269;47.358;0.724;2023-06-10T15:26:49;26.0;60.0
26641;DHT22;14269;47.358;0.724;2023-06-10T15:29:20;25.0;60.0
26641;DHT22;14269;47.358;0.724;2023-06-10T15:31:52;26.0;61.0
26641;DHT22;14269;47.358;0.724;2023-06-10T15:34:24;25.0;62.0
26641;DHT22;14269;47.358;0.724;2023-06-10T15:36:55;25.0;62.0
26641;DHT22;14269;47.358;0.724;2023-06-10T15:39:27;25.0;62.0
26641;DHT22;14269;47.358;0.724;2023-06-10T15:42:09;25.0;62.0
26641;DHT22;14269;47.358;0.724;2023-06-10T15:44:40;25.0;62.0
26641;DHT22;14269;47.358;0.724;2023-06-10T15:47:12;25.0;62.0
26641;DHT22;14269;47.358;0.724;2023-06-10T15:49:44;25.0;62.0
26641;DHT22;14269;47.358;0.724;2023-06-10T15:52:15;25.0;62.0
26641;DHT22;14269;47.358;0.724;2023-06-10T15:54:47;25.0;62.0
26641;DHT22;14269;47.358;0.724;2023-06-10T15:57:19;25.0;63.0
26641;DHT22;14269;47.358;0.724;2023-06-10T15:59:50;25.0;63.0
26641;DHT22;14269;47.358;0.724;2023-06-10T16:02:22;25.0;63.0
26641;DHT22;14269;47.358;0.724;2023-06-10T16:04:54;25.0;63.0
26641;DHT22;14269;47.358;0.724;2023-06-10T16:07:25;25.0;64.0
26641;DHT22;14269;47.358;0.724;2023-06-10T16:09:57;25.0;63.0
26641;DHT22;14269;47.358;0.724;2023-06-10T16:12:28;25.0;64.0
26641;DHT22;14269;47.358;0.724;2023-06-10T16:15:00;25.0;63.0
26641;DHT22;14269;47.358;0.724;2023-06-10T16:17:32;25.0;64.0
26641;DHT22;14269;47.358;0.724;2023-06-10T16:20:06;25.0;64.0
26641;DHT22;14269;47.358;0.724;2023-06-10T16:22:45;25.0;64.0
26641;DHT22;14269;47.358;0.724;2023-06-10T16:25:17;25.0;63.0
26641;DHT22;14269;47.358;0.724;2023-06-10T16:27:48;25.0;63.0
26641;DHT22;14269;47.358;0.724;2023-06-10T16:30:20;25.0;63.0
26641;DHT22;14269;47.358;0.724;2023-06-10T16:32:52;25.0;62.0
26641;DHT22;14269;47.358;0.724;2023-06-10T16:35:23;25.0;62.0
26641;DHT22;14269;47.358;0.724;2023-06-10T16:37:55;25.0;62.0
26641;DHT22;14269;47.358;0.724;2023-06-10T16:40:27;25.0;62.0
26641;DHT22;14269;47.358;0.724;2023-06-10T16:42:58;25.0;63.0
26641;DHT22;14269;47.358;0.724;2023-06-10T16:45:30;25.0;63.0